Terminal Aerodrome Forecast
Issued by NWS Grand Forks, ND

Home | Current Version | Previous Version | Text Only | Print | Product List | Glossary Off
Versions: 1 2 3 4 5 6 7 8 9 10 11 12 13 14 15 16 17 18 19 20 21 22

956
FTUS43 KFGF 150520
TAFFAR
TAF
KFAR 150520Z 1506/1606 VRB03KT P6SM FEW250
     FM151000 13004KT 4SM BR SCT200
     FM151100 VRB03KT 5SM BR SCT200
     FM151500 15007KT P6SM BKN200
     FM160000 13007KT P6SM VCSH BKN070=

USA.gov is the U.S. government's official web portal to all federal, state and local government web resources and services.